createdAt,value
2022-12-28T00:00:02.215Z,48.79079623371703
2022-12-28T00:15:01.913Z,48.77906747887184
2022-12-28T00:30:01.586Z,48.61347368107381
2022-12-28T00:45:01.298Z,48.59074782746302
2022-12-28T01:00:02.200Z,48.342836029894
2022-12-28T01:15:01.844Z,48.95853558187726
2022-12-28T01:30:01.510Z,51.53674209864152
2022-12-28T01:45:02.136Z,52.18206278195672
2022-12-28T02:00:01.757Z,52.87849661787887
2022-12-28T02:15:02.384Z,53.364927757952145
2022-12-28T02:30:02.072Z,53.77324176701823
2022-12-28T02:45:01.720Z,54.48654102983875
2022-12-28T03:00:02.375Z,54.41059432572415
2022-12-28T03:15:02.005Z,54.385816982012265
2022-12-28T03:30:01.695Z,53.999687121694684
2022-12-28T03:45:02.385Z,53.74321630807888
2022-12-28T04:00:02.073Z,54.59770169548857
2022-12-28T04:15:01.752Z,55.3161526706489
2022-12-28T04:30:01.465Z,55.41890398545388
2022-12-28T04:45:02.124Z,55.45935238151717
2022-12-28T05:00:01.883Z,55.54508718215356
2022-12-28T05:15:01.654Z,56.63744839283655
2022-12-28T05:30:01.388Z,57.14474686288534
2022-12-28T05:45:02.061Z,57.48582241118168
2022-12-28T06:00:01.707Z,57.80826105890395
2022-12-28T06:15:01.376Z,57.477634056615194
2022-12-28T06:30:02.050Z,57.79940518628016
2022-12-28T06:45:01.721Z,57.374556798701455
2022-12-28T07:00:01.542Z,57.7171398436879
2022-12-28T07:15:01.273Z,57.40210127393338
2022-12-28T07:30:01.929Z,57.708263919588006
2022-12-28T07:45:01.557Z,58.11411620456276
2022-12-28T08:00:02.192Z,57.86305636421752
2022-12-28T08:15:01.910Z,58.12017818586606
2022-12-28T08:30:01.591Z,58.12451751903833
2022-12-28T08:45:01.322Z,57.65373253674716
2022-12-28T09:00:02.310Z,58.2247081501462
2022-12-28T09:15:01.958Z,58.22766905294914
2022-12-28T09:30:01.647Z,58.296048361996725
2022-12-28T09:45:02.299Z,58.3704210218636
2022-12-28T10:00:01.951Z,58.06492497964889
2022-12-28T10:15:01.620Z,58.263655667072186
2022-12-28T10:30:02.382Z,57.98437824239469
2022-12-28T10:45:02.043Z,57.61120514688307
2022-12-28T11:00:01.873Z,57.66489658170805
2022-12-28T11:15:01.512Z,57.420865190064035
2022-12-28T11:30:02.182Z,57.89930165329825
2022-12-28T11:45:01.819Z,57.98260820232026
2022-12-28T12:00:01.463Z,58.09632457142185
2022-12-28T12:15:02.117Z,58.108720197877005
2022-12-28T12:30:01.939Z,57.498830217656206
2022-12-28T12:45:01.622Z,58.1531175088246
2022-12-28T13:00:02.283Z,58.27544031756653
2022-12-28T13:15:04.889Z,58.40461873447908
2022-12-28T13:30:01.728Z,58.75136457462532
2022-12-28T13:45:01.660Z,58.7749501448118
2022-12-28T14:00:01.285Z,58.86464131546812
2022-12-28T14:15:01.900Z,58.96887936896186
2022-12-28T14:30:01.579Z,58.90527634904449
2022-12-28T14:45:01.239Z,58.57737122163519
2022-12-28T15:00:01.873Z,58.44653548688314
2022-12-28T15:15:01.538Z,58.40253305617083
2022-12-28T15:30:05.868Z,58.00971283182954
2022-12-28T15:45:02.125Z,57.67952710199518
2022-12-28T16:00:01.742Z,57.28150204566889
2022-12-28T16:15:01.389Z,56.791798142636154
2022-12-28T16:30:02.050Z,56.095252057729866
2022-12-28T16:45:01.746Z,55.44300566232702
2022-12-28T17:00:01.679Z,54.65812381666256
2022-12-28T17:15:05.336Z,54.21459006430546
2022-12-28T17:30:02.226Z,52.99875805382178
2022-12-28T17:45:07.529Z,52.41288631364743
2022-12-28T18:00:01.716Z,52.02961485627891
2022-12-28T18:15:02.438Z,54.533090364281755
2022-12-28T18:30:02.125Z,55.51595595014427
2022-12-28T18:45:01.812Z,56.0786326307025
2022-12-28T19:00:01.481Z,56.9151095457642
2022-12-28T19:15:02.122Z,57.24745761152995
2022-12-28T19:30:01.783Z,57.750264324579014
2022-12-28T19:45:07.993Z,58.15939766141196
2022-12-28T20:00:01.385Z,58.42526667563106
2022-12-28T20:15:02.036Z,58.600136567418424
2022-12-28T20:30:01.687Z,58.487274365686865
2022-12-28T20:45:01.383Z,58.54287005008313
2022-12-28T21:00:02.288Z,58.73868399048452
2022-12-28T21:15:01.942Z,58.42070507568248
2022-12-28T21:30:01.600Z,59.04177541929449
2022-12-28T21:45:02.233Z,59.20748706086703
2022-12-28T22:00:02.218Z,58.61003730343408
2022-12-28T22:15:01.985Z,57.71849194682417
2022-12-28T22:30:01.672Z,57.23428268118209
2022-12-28T22:45:02.338Z,57.24792678782332
2022-12-28T23:00:02.039Z,56.326795723774126
2022-12-28T23:15:01.715Z,55.76077577355352
2022-12-28T23:30:02.405Z,55.86219556572818
2022-12-28T23:45:02.072Z,56.705579091551215
